sensor_id;sensor_type;location;lat;lon;timestamp;temperature;humidity
3628;DHT22;1830;49.000;12.074;2023-01-29T00:01:49;0.20;99.90
3628;DHT22;1830;49.000;12.074;2023-01-29T00:04:17;0.10;99.90
3628;DHT22;1830;49.000;12.074;2023-01-29T00:06:44;0.10;99.90
3628;DHT22;1830;49.000;12.074;2023-01-29T00:09:11;0.10;99.90
3628;DHT22;1830;49.000;12.074;2023-01-29T00:11:39;0.10;99.90
3628;DHT22;1830;49.000;12.074;2023-01-29T00:14:06;0.10;99.90
3628;DHT22;1830;49.000;12.074;2023-01-29T00:16:33;0.10;99.90
3628;DHT22;1830;49.000;12.074;2023-01-29T00:19:00;0.10;99.90
3628;DHT22;1830;49.000;12.074;2023-01-29T00:21:29;0.10;99.90
3628;DHT22;1830;49.000;12.074;2023-01-29T00:23:56;0.00;99.90
3628;DHT22;1830;49.000;12.074;2023-01-29T00:26:23;0.00;99.90
3628;DHT22;1830;49.000;12.074;2023-01-29T00:28:50;-0.10;99.90
3628;DHT22;1830;49.000;12.074;2023-01-29T00:31:18;0.00;99.90
3628;DHT22;1830;49.000;12.074;2023-01-29T00:33:46;0.00;99.90
3628;DHT22;1830;49.000;12.074;2023-01-29T00:36:14;0.00;99.90
3628;DHT22;1830;49.000;12.074;2023-01-29T00:38:43;0.00;99.90
3628;DHT22;1830;49.000;12.074;2023-01-29T00:41:12;0.00;99.90
3628;DHT22;1830;49.000;12.074;2023-01-29T00:43:57;-0.10;99.90
3628;DHT22;1830;49.000;12.074;2023-01-29T00:46:41;0.00;99.90
3628;DHT22;1830;49.000;12.074;2023-01-29T00:49:08;0.00;99.90
3628;DHT22;1830;49.000;12.074;2023-01-29T00:51:36;0.00;99.90
3628;DHT22;1830;49.000;12.074;2023-01-29T00:54:05;-0.10;99.90
3628;DHT22;1830;49.000;12.074;2023-01-29T00:56:33;0.00;99.90
3628;DHT22;1830;49.000;12.074;2023-01-29T00:59:00;0.00;99.90
3628;DHT22;1830;49.000;12.074;2023-01-29T01:01:27;-0.10;99.90
3628;DHT22;1830;49.000;12.074;2023-01-29T01:04:11;-0.20;99.90
3628;DHT22;1830;49.000;12.074;2023-01-29T01:06:38;-0.10;99.90
3628;DHT22;1830;49.000;12.074;2023-01-29T01:09:08;-0.10;99.90
3628;DHT22;1830;49.000;12.074;2023-01-29T01:11:53;0.00;99.90
3628;DHT22;1830;49.000;12.074;2023-01-29T01:14:20;0.00;99.90
3628;DHT22;1830;49.000;12.074;2023-01-29T01:16:47;0.00;99.90
3628;DHT22;1830;49.000;12.074;2023-01-29T01:19:15;0.00;99.90
3628;DHT22;1830;49.000;12.074;2023-01-29T01:21:42;0.00;99.90
3628;DHT22;1830;49.000;12.074;2023-01-29T01:24:13;0.00;99.90
3628;DHT22;1830;49.000;12.074;2023-01-29T01:26:40;0.00;99.90
3628;DHT22;1830;49.000;12.074;2023-01-29T01:29:07;0.00;99.90
3628;DHT22;1830;49.000;12.074;2023-01-29T01:31:34;0.00;99.90
3628;DHT22;1830;49.000;12.074;2023-01-29T01:34:01;0.00;99.90
3628;DHT22;1830;49.000;12.074;2023-01-29T01:36:28;0.00;99.90
3628;DHT22;1830;49.000;12.074;2023-01-29T01:38:56;0.00;99.90
3628;DHT22;1830;49.000;12.074;2023-01-29T01:41:25;0.00;99.90
3628;DHT22;1830;49.000;12.074;2023-01-29T01:43:53;0.00;99.90
3628;DHT22;1830;49.000;12.074;2023-01-29T01:46:22;0.00;99.90
3628;DHT22;1830;49.000;12.074;2023-01-29T01:48:52;-0.10;99.90
3628;DHT22;1830;49.000;12.074;2023-01-29T01:51:21;0.00;99.90
3628;DHT22;1830;49.000;12.074;2023-01-29T01:53:53;0.00;99.90
3628;DHT22;1830;49.000;12.074;2023-01-29T01:56:25;0.00;99.90
3628;DHT22;1830;49.000;12.074;2023-01-29T01:58:55;0.00;99.90
3628;DHT22;1830;49.000;12.074;2023-01-29T02:01:23;0.00;99.90
3628;DHT22;1830;49.000;12.074;2023-01-29T02:03:56;0.00;99.90
3628;DHT22;1830;49.000;12.074;2023-01-29T02:06:42;0.00;99.90
3628;DHT22;1830;49.000;12.074;2023-01-29T02:09:31;0.00;99.90
3628;DHT22;1830;49.000;12.074;2023-01-29T02:12:05;0.00;99.90
3628;DHT22;1830;49.000;12.074;2023-01-29T02:14:33;0.00;99.90
3628;DHT22;1830;49.000;12.074;2023-01-29T02:17:05;0.10;99.90
3628;DHT22;1830;49.000;12.074;2023-01-29T02:19:40;0.10;99.90
3628;DHT22;1830;49.000;12.074;2023-01-29T02:22:27;0.00;99.90
3628;DHT22;1830;49.000;12.074;2023-01-29T02:28:15;0.00;99.90
3628;DHT22;1830;49.000;12.074;2023-01-29T02:30:51;0.10;99.90
3628;DHT22;1830;49.000;12.074;2023-01-29T02:33:25;0.10;99.90
3628;DHT22;1830;49.000;12.074;2023-01-29T02:36:03;0.00;99.90
3628;DHT22;1830;49.000;12.074;2023-01-29T02:38:39;0.00;99.90
3628;DHT22;1830;49.000;12.074;2023-01-29T02:41:12;0.00;99.90
3628;DHT22;1830;49.000;12.074;2023-01-29T02:43:45;0.00;99.90
3628;DHT22;1830;49.000;12.074;2023-01-29T02:46:17;0.00;99.90
3628;DHT22;1830;49.000;12.074;2023-01-29T02:48:53;-0.10;99.90
3628;DHT22;1830;49.000;12.074;2023-01-29T02:51:25;-0.10;99.90
3628;DHT22;1830;49.000;12.074;2023-01-29T02:53:57;-0.10;99.90
3628;DHT22;1830;49.000;12.074;2023-01-29T02:56:29;-0.10;99.90
3628;DHT22;1830;49.000;12.074;2023-01-29T02:59:04;-0.10;99.90
3628;DHT22;1830;49.000;12.074;2023-01-29T03:01:37;0.00;99.90
3628;DHT22;1830;49.000;12.074;2023-01-29T03:04:08;-0.10;99.90
3628;DHT22;1830;49.000;12.074;2023-01-29T03:06:39;-0.20;99.90
3628;DHT22;1830;49.000;12.074;2023-01-29T03:09:11;-0.10;99.90
3628;DHT22;1830;49.000;12.074;2023-01-29T03:11:43;-0.10;99.90
3628;DHT22;1830;49.000;12.074;2023-01-29T03:14:15;-0.10;99.90
3628;DHT22;1830;49.000;12.074;2023-01-29T03:16:46;-0.20;99.90
3628;DHT22;1830;49.000;12.074;2023-01-29T03:19:17;-0.10;99.90
3628;DHT22;1830;49.000;12.074;2023-01-29T03:21:47;-0.10;99.90
3628;DHT22;1830;49.000;12.074;2023-01-29T03:24:19;-0.10;99.90
3628;DHT22;1830;49.000;12.074;2023-01-29T03:27:08;-0.10;99.90
3628;DHT22;1830;49.000;12.074;2023-01-29T03:29:55;-0.10;99.90
3628;DHT22;1830;49.000;12.074;2023-01-29T03:32:41;-0.20;99.90
3628;DHT22;1830;49.000;12.074;2023-01-29T03:35:09;-0.10;99.90
3628;DHT22;1830;49.000;12.074;2023-01-29T03:37:41;-0.10;99.90
3628;DHT22;1830;49.000;12.074;2023-01-29T03:40:10;-0.20;99.90
3628;DHT22;1830;49.000;12.074;2023-01-29T03:42:47;-0.20;99.90
3628;DHT22;1830;49.000;12.074;2023-01-29T03:45:20;-0.10;99.90
3628;DHT22;1830;49.000;12.074;2023-01-29T03:47:59;0.00;99.90
3628;DHT22;1830;49.000;12.074;2023-01-29T03:50:35;-0.10;99.90
3628;DHT22;1830;49.000;12.074;2023-01-29T03:53:08;-0.10;99.90
3628;DHT22;1830;49.000;12.074;2023-01-29T03:55:42;-0.10;99.90
3628;DHT22;1830;49.000;12.074;2023-01-29T03:58:18;-0.10;99.90
3628;DHT22;1830;49.000;12.074;2023-01-29T04:00:52;-0.20;99.90
3628;DHT22;1830;49.000;12.074;2023-01-29T04:03:22;-0.10;99.90
3628;DHT22;1830;49.000;12.074;2023-01-29T04:05:52;0.00;99.90
3628;DHT22;1830;49.000;12.074;2023-01-29T04:08:25;0.00;99.90
3628;DHT22;1830;49.000;12.074;2023-01-29T04:10:54;0.00;99.90
3628;DHT22;1830;49.000;12.074;2023-01-29T04:13:23;-0.10;99.90
3628;DHT22;1830;49.000;12.074;2023-01-29T04:15:55;0.00;99.90
3628;DHT22;1830;49.000;12.074;2023-01-29T04:18:23;-0.10;99.90
3628;DHT22;1830;49.000;12.074;2023-01-29T04:20:50;-0.10;99.90
3628;DHT22;1830;49.000;12.074;2023-01-29T04:23:20;-0.10;99.90
3628;DHT22;1830;49.000;12.074;2023-01-29T04:25:53;0.00;99.90
3628;DHT22;1830;49.000;12.074;2023-01-29T04:28:26;-0.10;99.90
3628;DHT22;1830;49.000;12.074;2023-01-29T04:30:58;-0.10;99.90
3628;DHT22;1830;49.000;12.074;2023-01-29T04:33:33;-0.10;99.90
3628;DHT22;1830;49.000;12.074;2023-01-29T04:36:16;-0.10;99.90
3628;DHT22;1830;49.000;12.074;2023-01-29T04:38:51;-0.10;99.90
3628;DHT22;1830;49.000;12.074;2023-01-29T04:41:23;-0.10;99.90
3628;DHT22;1830;49.000;12.074;2023-01-29T04:43:59;0.00;99.90
3628;DHT22;1830;49.000;12.074;2023-01-29T04:46:33;-0.20;99.90
3628;DHT22;1830;49.000;12.074;2023-01-29T04:49:13;-0.20;99.90
3628;DHT22;1830;49.000;12.074;2023-01-29T04:51:50;-0.50;99.90
3628;DHT22;1830;49.000;12.074;2023-01-29T04:54:27;-0.80;99.90
3628;DHT22;1830;49.000;12.074;2023-01-29T04:57:04;-0.70;99.90
3628;DHT22;1830;49.000;12.074;2023-01-29T04:59:38;-0.80;99.90
3628;DHT22;1830;49.000;12.074;2023-01-29T05:02:09;-0.70;99.90
3628;DHT22;1830;49.000;12.074;2023-01-29T05:04:39;-0.70;99.90
3628;DHT22;1830;49.000;12.074;2023-01-29T05:07:10;-0.60;99.90
3628;DHT22;1830;49.000;12.074;2023-01-29T05:09:38;-0.70;99.90
3628;DHT22;1830;49.000;12.074;2023-01-29T05:12:07;-1.00;99.90
3628;DHT22;1830;49.000;12.074;2023-01-29T05:14:36;-0.90;99.90
3628;DHT22;1830;49.000;12.074;2023-01-29T05:17:11;-0.80;99.90
3628;DHT22;1830;49.000;12.074;2023-01-29T05:19:39;-0.70;99.90
3628;DHT22;1830;49.000;12.074;2023-01-29T05:22:08;-0.60;99.90
3628;DHT22;1830;49.000;12.074;2023-01-29T05:24:37;-0.50;99.90
3628;DHT22;1830;49.000;12.074;2023-01-29T05:27:04;-0.60;99.90
3628;DHT22;1830;49.000;12.074;2023-01-29T05:29:48;-0.70;99.90
3628;DHT22;1830;49.000;12.074;2023-01-29T05:32:16;-0.70;99.90
3628;DHT22;1830;49.000;12.074;2023-01-29T05:34:43;-0.60;99.90
3628;DHT22;1830;49.000;12.074;2023-01-29T05:37:10;-0.60;99.90
3628;DHT22;1830;49.000;12.074;2023-01-29T05:39:36;-0.60;99.90
3628;DHT22;1830;49.000;12.074;2023-01-29T05:42:03;-0.50;99.90
3628;DHT22;1830;49.000;12.074;2023-01-29T05:44:30;-0.60;99.90
3628;DHT22;1830;49.000;12.074;2023-01-29T05:46:57;-0.50;99.90
3628;DHT22;1830;49.000;12.074;2023-01-29T05:49:25;-0.50;99.90
3628;DHT22;1830;49.000;12.074;2023-01-29T05:51:52;-0.50;99.90
3628;DHT22;1830;49.000;12.074;2023-01-29T05:54:19;-0.40;99.90
3628;DHT22;1830;49.000;12.074;2023-01-29T05:56:46;-0.50;99.90
3628;DHT22;1830;49.000;12.074;2023-01-29T05:59:14;-0.40;99.90
3628;DHT22;1830;49.000;12.074;2023-01-29T06:01:41;-0.40;99.90
3628;DHT22;1830;49.000;12.074;2023-01-29T06:04:07;-0.40;99.90
3628;DHT22;1830;49.000;12.074;2023-01-29T06:06:36;-0.50;99.90
3628;DHT22;1830;49.000;12.074;2023-01-29T06:09:02;-0.40;99.90
3628;DHT22;1830;49.000;12.074;2023-01-29T06:11:29;-0.50;99.90
3628;DHT22;1830;49.000;12.074;2023-01-29T06:13:56;-0.50;99.90
3628;DHT22;1830;49.000;12.074;2023-01-29T06:16:23;-0.50;99.90
3628;DHT22;1830;49.000;12.074;2023-01-29T06:18:50;-0.70;99.90
3628;DHT22;1830;49.000;12.074;2023-01-29T06:21:16;-0.60;99.90
3628;DHT22;1830;49.000;12.074;2023-01-29T06:24:00;-0.60;99.90
3628;DHT22;1830;49.000;12.074;2023-01-29T06:26:26;-0.70;99.90
3628;DHT22;1830;49.000;12.074;2023-01-29T06:28:53;-0.90;99.90
3628;DHT22;1830;49.000;12.074;2023-01-29T06:31:20;-0.70;99.90
3628;DHT22;1830;49.000;12.074;2023-01-29T06:33:47;-0.60;99.90
3628;DHT22;1830;49.000;12.074;2023-01-29T06:36:13;-0.60;99.90
3628;DHT22;1830;49.000;12.074;2023-01-29T06:38:40;-0.60;99.90
3628;DHT22;1830;49.000;12.074;2023-01-29T06:41:10;-0.60;99.90
3628;DHT22;1830;49.000;12.074;2023-01-29T06:43:38;-0.60;99.90
3628;DHT22;1830;49.000;12.074;2023-01-29T06:46:06;-0.60;99.90
3628;DHT22;1830;49.000;12.074;2023-01-29T06:48:34;-0.60;99.90
3628;DHT22;1830;49.000;12.074;2023-01-29T06:51:02;-0.60;99.90
3628;DHT22;1830;49.000;12.074;2023-01-29T06:53:29;-0.60;99.90
3628;DHT22;1830;49.000;12.074;2023-01-29T06:55:56;-0.60;99.90
3628;DHT22;1830;49.000;12.074;2023-01-29T06:58:24;-0.60;99.90
3628;DHT22;1830;49.000;12.074;2023-01-29T07:00:52;-0.60;99.90
3628;DHT22;1830;49.000;12.074;2023-01-29T07:03:18;-0.60;99.90
3628;DHT22;1830;49.000;12.074;2023-01-29T07:05:49;-0.70;99.90
3628;DHT22;1830;49.000;12.074;2023-01-29T07:08:17;-0.90;99.90
3628;DHT22;1830;49.000;12.074;2023-01-29T07:10:47;-0.70;99.90
3628;DHT22;1830;49.000;12.074;2023-01-29T07:13:13;-0.70;99.90
3628;DHT22;1830;49.000;12.074;2023-01-29T07:15:42;-0.70;99.90
3628;DHT22;1830;49.000;12.074;2023-01-29T07:18:09;-0.80;99.90
3628;DHT22;1830;49.000;12.074;2023-01-29T07:20:38;-0.80;99.90
3628;DHT22;1830;49.000;12.074;2023-01-29T07:23:06;-0.80;99.90
3628;DHT22;1830;49.000;12.074;2023-01-29T07:25:33;-0.80;99.90
3628;DHT22;1830;49.000;12.074;2023-01-29T07:28:00;-0.80;99.90
3628;DHT22;1830;49.000;12.074;2023-01-29T07:30:27;-0.80;99.90
3628;DHT22;1830;49.000;12.074;2023-01-29T07:33:00;-0.80;99.90
3628;DHT22;1830;49.000;12.074;2023-01-29T07:35:27;-0.80;99.90
3628;DHT22;1830;49.000;12.074;2023-01-29T07:37:53;-0.80;99.90
3628;DHT22;1830;49.000;12.074;2023-01-29T07:40:20;-0.80;99.90
3628;DHT22;1830;49.000;12.074;2023-01-29T07:42:47;-0.80;99.90
3628;DHT22;1830;49.000;12.074;2023-01-29T07:45:14;-0.80;99.90
3628;DHT22;1830;49.000;12.074;2023-01-29T07:47:40;-0.80;99.90
3628;DHT22;1830;49.000;12.074;2023-01-29T07:50:10;-0.60;99.90
3628;DHT22;1830;49.000;12.074;2023-01-29T07:52:37;-0.60;99.90
3628;DHT22;1830;49.000;12.074;2023-01-29T07:55:04;-0.70;99.90
3628;DHT22;1830;49.000;12.074;2023-01-29T07:57:31;-0.80;99.90
3628;DHT22;1830;49.000;12.074;2023-01-29T07:59:57;-0.70;99.90
3628;DHT22;1830;49.000;12.074;2023-01-29T08:02:24;-0.80;99.90
3628;DHT22;1830;49.000;12.074;2023-01-29T08:04:51;-0.80;99.90
3628;DHT22;1830;49.000;12.074;2023-01-29T08:07:19;-0.70;99.90
3628;DHT22;1830;49.000;12.074;2023-01-29T08:09:46;-0.80;99.90
3628;DHT22;1830;49.000;12.074;2023-01-29T08:12:13;-0.70;99.90
3628;DHT22;1830;49.000;12.074;2023-01-29T08:14:39;-0.70;99.90
3628;DHT22;1830;49.000;12.074;2023-01-29T08:17:06;-0.70;99.90
3628;DHT22;1830;49.000;12.074;2023-01-29T08:19:33;-0.80;99.90
3628;DHT22;1830;49.000;12.074;2023-01-29T08:22:00;-0.70;99.90
3628;DHT22;1830;49.000;12.074;2023-01-29T08:24:28;-0.70;99.90
3628;DHT22;1830;49.000;12.074;2023-01-29T08:26:55;-0.70;99.90
3628;DHT22;1830;49.000;12.074;2023-01-29T08:29:22;-0.60;99.90
3628;DHT22;1830;49.000;12.074;2023-01-29T08:31:48;-0.70;99.90
3628;DHT22;1830;49.000;12.074;2023-01-29T08:34:15;-0.80;99.90
3628;DHT22;1830;49.000;12.074;2023-01-29T08:36:42;-0.70;99.90
3628;DHT22;1830;49.000;12.074;2023-01-29T08:39:09;-0.60;99.90
3628;DHT22;1830;49.000;12.074;2023-01-29T08:41:37;-0.60;99.90
3628;DHT22;1830;49.000;12.074;2023-01-29T08:44:04;-0.60;99.90
3628;DHT22;1830;49.000;12.074;2023-01-29T08:46:31;-0.60;99.90
3628;DHT22;1830;49.000;12.074;2023-01-29T08:48:58;-0.60;99.90
3628;DHT22;1830;49.000;12.074;2023-01-29T08:51:25;-0.60;99.90
3628;DHT22;1830;49.000;12.074;2023-01-29T08:53:52;-0.50;99.90
3628;DHT22;1830;49.000;12.074;2023-01-29T08:56:19;-0.30;99.90
3628;DHT22;1830;49.000;12.074;2023-01-29T08:58:47;-0.40;99.90
3628;DHT22;1830;49.000;12.074;2023-01-29T09:01:14;-0.40;99.90
3628;DHT22;1830;49.000;12.074;2023-01-29T09:03:41;-0.40;99.90
3628;DHT22;1830;49.000;12.074;2023-01-29T09:06:10;-0.40;99.90
3628;DHT22;1830;49.000;12.074;2023-01-29T09:08:39;-0.50;99.90
3628;DHT22;1830;49.000;12.074;2023-01-29T09:11:07;-0.50;99.90
3628;DHT22;1830;49.000;12.074;2023-01-29T09:13:33;-0.50;99.90
3628;DHT22;1830;49.000;12.074;2023-01-29T09:16:03;-0.50;99.90
3628;DHT22;1830;49.000;12.074;2023-01-29T09:18:30;-0.60;99.90
3628;DHT22;1830;49.000;12.074;2023-01-29T09:20:57;-0.70;99.90
3628;DHT22;1830;49.000;12.074;2023-01-29T09:23:26;-0.50;99.90
3628;DHT22;1830;49.000;12.074;2023-01-29T09:25:53;-0.50;99.90
3628;DHT22;1830;49.000;12.074;2023-01-29T09:28:20;-0.50;99.90
3628;DHT22;1830;49.000;12.074;2023-01-29T09:30:46;-0.70;99.90
3628;DHT22;1830;49.000;12.074;2023-01-29T09:33:15;-0.60;99.90
3628;DHT22;1830;49.000;12.074;2023-01-29T09:35:42;-0.60;99.90
3628;DHT22;1830;49.000;12.074;2023-01-29T09:38:10;-0.60;99.90
3628;DHT22;1830;49.000;12.074;2023-01-29T09:40:43;-0.60;99.90
3628;DHT22;1830;49.000;12.074;2023-01-29T09:43:15;-0.50;99.90
3628;DHT22;1830;49.000;12.074;2023-01-29T09:45:51;-0.50;99.90
3628;DHT22;1830;49.000;12.074;2023-01-29T09:48:21;-0.40;99.90
3628;DHT22;1830;49.000;12.074;2023-01-29T09:50:50;-0.40;99.90
3628;DHT22;1830;49.000;12.074;2023-01-29T09:53:23;-0.60;99.90
3628;DHT22;1830;49.000;12.074;2023-01-29T09:55:54;-0.50;99.90
3628;DHT22;1830;49.000;12.074;2023-01-29T09:58:27;-0.50;99.90
3628;DHT22;1830;49.000;12.074;2023-01-29T10:01:02;-0.50;99.90
3628;DHT22;1830;49.000;12.074;2023-01-29T10:03:58;-0.50;99.90
3628;DHT22;1830;49.000;12.074;2023-01-29T10:06:38;-0.40;99.90
3628;DHT22;1830;49.000;12.074;2023-01-29T10:09:32;-0.40;99.90
3628;DHT22;1830;49.000;12.074;2023-01-29T10:12:16;-0.10;99.90
3628;DHT22;1830;49.000;12.074;2023-01-29T10:14:50;-0.20;99.90
3628;DHT22;1830;49.000;12.074;2023-01-29T10:17:32;-0.20;99.90
3628;DHT22;1830;49.000;12.074;2023-01-29T10:20:38;-0.20;99.90
3628;DHT22;1830;49.000;12.074;2023-01-29T10:23:20;-0.20;99.90
3628;DHT22;1830;49.000;12.074;2023-01-29T10:25:48;-0.20;99.90
3628;DHT22;1830;49.000;12.074;2023-01-29T10:28:17;-0.20;99.90
3628;DHT22;1830;49.000;12.074;2023-01-29T10:30:48;-0.20;99.90
3628;DHT22;1830;49.000;12.074;2023-01-29T10:33:24;-0.20;99.90
3628;DHT22;1830;49.000;12.074;2023-01-29T10:35:59;-0.30;99.90
3628;DHT22;1830;49.000;12.074;2023-01-29T10:38:42;-0.20;99.90
3628;DHT22;1830;49.000;12.074;2023-01-29T10:41:25;-0.20;99.90
3628;DHT22;1830;49.000;12.074;2023-01-29T10:44:03;-0.10;99.90
3628;DHT22;1830;49.000;12.074;2023-01-29T10:46:47;-0.10;99.90
3628;DHT22;1830;49.000;12.074;2023-01-29T10:49:28;-0.20;99.90
3628;DHT22;1830;49.000;12.074;2023-01-29T10:52:09;-0.10;99.90
3628;DHT22;1830;49.000;12.074;2023-01-29T10:54:53;-0.10;99.90
